Dunlay, Texas
Current Conditions -  °F | °C
As of 4:51 PM on Thursday 23 Oct 2014 (Local Time) from KHDO Reporting Station
Broken Clouds Broken Clouds  
Wind Chill: 79°   Ceiling: 8000
Heat Index: 80°   Visibility: 10mi
Dew Point: 58°   Wind: 5mph
Humidity: 48%   Direction: 360°N
Pressure: 30.08"   Gusts: NA
Location:  29.4252°N, 99.1005°W
Report Text: KHDO 232151Z AUTO 36004KT 10SM BKN080 26/14 A3008 RMK AO2 SLP172 T02610144
Loading
Personal Weather Stations






























Interactive Weather Map
Tropical Storm Tracking
New forecast layout! Learn more

10-Day Weather Forecast

Advertisements
Track Severe Weather on mobile